sensor_id;sensor_type;location;lat;lon;timestamp;temperature;humidity
11489;DHT22;5801;50.804;12.638;2023-07-02T10:11:42;22.50;99.90
11489;DHT22;5801;50.804;12.638;2023-07-02T10:14:08;22.50;1.00
11489;DHT22;5801;50.804;12.638;2023-07-02T10:16:33;23.80;1.00
11489;DHT22;5801;50.804;12.638;2023-07-02T10:19:12;23.30;99.90
11489;DHT22;5801;50.804;12.638;2023-07-02T10:21:38;22.20;1.00
11489;DHT22;5801;50.804;12.638;2023-07-02T10:31:49;21.40;1.00
11489;DHT22;5801;50.804;12.638;2023-07-02T10:34:14;21.50;99.90
11489;DHT22;5801;50.804;12.638;2023-07-02T10:51:25;23.30;1.00
11489;DHT22;5801;50.804;12.638;2023-07-02T11:08:58;22.10;99.90
11489;DHT22;5801;50.804;12.638;2023-07-02T11:11:24;22.10;99.90
11489;DHT22;5801;50.804;12.638;2023-07-02T11:13:51;21.90;99.90
11489;DHT22;5801;50.804;12.638;2023-07-02T11:16:26;22.00;99.90
11489;DHT22;5801;50.804;12.638;2023-07-02T11:36:27;23.30;1.00
11489;DHT22;5801;50.804;12.638;2023-07-02T11:38:55;23.00;1.00
11489;DHT22;5801;50.804;12.638;2023-07-02T11:41:21;23.20;1.00
11489;DHT22;5801;50.804;12.638;2023-07-02T11:43:46;22.80;99.90
11489;DHT22;5801;50.804;12.638;2023-07-02T11:46:13;23.10;99.90
11489;DHT22;5801;50.804;12.638;2023-07-02T11:48:38;22.60;99.90
11489;DHT22;5801;50.804;12.638;2023-07-02T11:51:04;22.50;99.90
11489;DHT22;5801;50.804;12.638;2023-07-02T11:53:30;22.40;99.90
11489;DHT22;5801;50.804;12.638;2023-07-02T11:55:55;22.20;1.00
11489;DHT22;5801;50.804;12.638;2023-07-02T11:58:21;22.30;1.00
11489;DHT22;5801;50.804;12.638;2023-07-02T12:00:46;22.30;1.00
11489;DHT22;5801;50.804;12.638;2023-07-02T12:22:39;22.30;4.80
11489;DHT22;5801;50.804;12.638;2023-07-02T12:25:05;21.90;99.90
11489;DHT22;5801;50.804;12.638;2023-07-02T12:27:30;22.30;99.90
11489;DHT22;5801;50.804;12.638;2023-07-02T12:29:56;22.10;1.00
11489;DHT22;5801;50.804;12.638;2023-07-02T12:32:22;22.30;99.90
11489;DHT22;5801;50.804;12.638;2023-07-02T12:34:47;22.30;99.90
11489;DHT22;5801;50.804;12.638;2023-07-02T12:37:13;22.50;99.90
11489;DHT22;5801;50.804;12.638;2023-07-02T12:39:42;22.60;99.90
11489;DHT22;5801;50.804;12.638;2023-07-02T12:42:08;22.60;99.90
11489;DHT22;5801;50.804;12.638;2023-07-02T12:44:33;22.50;99.90
11489;DHT22;5801;50.804;12.638;2023-07-02T12:46:59;22.60;99.90
11489;DHT22;5801;50.804;12.638;2023-07-02T12:49:24;22.20;99.90
11489;DHT22;5801;50.804;12.638;2023-07-02T12:51:49;22.30;99.90
11489;DHT22;5801;50.804;12.638;2023-07-02T12:54:15;22.40;99.90
11489;DHT22;5801;50.804;12.638;2023-07-02T12:56:41;22.70;99.90
11489;DHT22;5801;50.804;12.638;2023-07-02T12:59:06;22.60;99.90
11489;DHT22;5801;50.804;12.638;2023-07-02T13:01:32;22.50;99.90
11489;DHT22;5801;50.804;12.638;2023-07-02T13:03:57;22.60;99.90
11489;DHT22;5801;50.804;12.638;2023-07-02T13:06:23;22.70;99.90
11489;DHT22;5801;50.804;12.638;2023-07-02T13:08:48;22.70;99.90
11489;DHT22;5801;50.804;12.638;2023-07-02T13:11:14;22.70;99.90
11489;DHT22;5801;50.804;12.638;2023-07-02T13:18:33;22.90;99.90
11489;DHT22;5801;50.804;12.638;2023-07-02T13:20:58;22.20;99.90
11489;DHT22;5801;50.804;12.638;2023-07-02T13:23:24;22.60;99.90
11489;DHT22;5801;50.804;12.638;2023-07-02T13:25:49;22.20;99.90
11489;DHT22;5801;50.804;12.638;2023-07-02T13:28:15;22.10;99.90
11489;DHT22;5801;50.804;12.638;2023-07-02T13:33:07;22.60;99.90
11489;DHT22;5801;50.804;12.638;2023-07-02T13:35:33;22.70;99.90
11489;DHT22;5801;50.804;12.638;2023-07-02T13:42:55;22.80;99.90
11489;DHT22;5801;50.804;12.638;2023-07-02T13:50:13;23.30;99.90
11489;DHT22;5801;50.804;12.638;2023-07-02T13:55:04;22.50;99.90
11489;DHT22;5801;50.804;12.638;2023-07-02T13:59:56;22.50;99.90
11489;DHT22;5801;50.804;12.638;2023-07-02T14:02:23;22.40;99.90
11489;DHT22;5801;50.804;12.638;2023-07-02T14:07:14;22.50;99.90
11489;DHT22;5801;50.804;12.638;2023-07-02T14:12:06;22.40;99.90
11489;DHT22;5801;50.804;12.638;2023-07-02T15:39:50;22.20;99.90
11489;DHT22;5801;50.804;12.638;2023-07-02T15:42:15;21.90;99.90
11489;DHT22;5801;50.804;12.638;2023-07-02T15:44:41;21.90;99.90
11489;DHT22;5801;50.804;12.638;2023-07-02T15:47:06;22.10;99.90
11489;DHT22;5801;50.804;12.638;2023-07-02T18:38:23;20.40;83.40
11489;DHT22;5801;50.804;12.638;2023-07-02T18:41:03;19.90;99.90
11489;DHT22;5801;50.804;12.638;2023-07-02T18:43:31;19.80;99.90
11489;DHT22;5801;50.804;12.638;2023-07-02T18:45:56;19.70;99.90
11489;DHT22;5801;50.804;12.638;2023-07-02T18:48:22;19.70;99.90
11489;DHT22;5801;50.804;12.638;2023-07-02T18:50:48;19.60;99.90
11489;DHT22;5801;50.804;12.638;2023-07-02T18:53:13;19.50;99.90
11489;DHT22;5801;50.804;12.638;2023-07-02T18:55:39;19.50;99.90
11489;DHT22;5801;50.804;12.638;2023-07-02T18:58:04;19.50;99.90
11489;DHT22;5801;50.804;12.638;2023-07-02T19:00:30;19.50;99.90
11489;DHT22;5801;50.804;12.638;2023-07-02T19:02:56;19.30;99.90
11489;DHT22;5801;50.804;12.638;2023-07-02T19:05:22;19.40;99.90
11489;DHT22;5801;50.804;12.638;2023-07-02T19:07:47;19.20;99.90
11489;DHT22;5801;50.804;12.638;2023-07-02T19:10:14;19.20;99.90
11489;DHT22;5801;50.804;12.638;2023-07-02T19:12:41;19.40;99.90
11489;DHT22;5801;50.804;12.638;2023-07-02T19:15:08;19.10;99.90
11489;DHT22;5801;50.804;12.638;2023-07-02T19:17:34;19.00;99.90
11489;DHT22;5801;50.804;12.638;2023-07-02T19:20:00;19.00;99.90
11489;DHT22;5801;50.804;12.638;2023-07-02T19:22:25;18.90;99.90
